Time;durP1;ratioP1;P1;durP2;ratioP2;P2;SDS_P1;SDS_P2;PMS_P1;PMS_P2;Temp;Humidity;BMP_temperature;BMP_pressure;BME280_temperature;BME280_humidity;BME280_pressure;Samples;Min_cycle;Max_cycle;Signal;HPM_P1;HPM_P2
2022/07/02 00:01:54;;;;;;;2.85;1.65;;;15.50;99.90;;;;;;5078830;28;20062;-63
2022/07/02 00:04:25;;;;;;;3.33;1.70;;;15.60;99.90;;;;;;5078816;28;20028;-63
2022/07/02 00:06:52;;;;;;;1.77;1.50;;;15.60;99.90;;;;;;5078927;28;20087;-63
2022/07/02 00:09:18;;;;;;;1.85;1.50;;;15.70;99.90;;;;;;5061347;28;20033;-63
2022/07/02 00:11:47;;;;;;;2.88;1.75;;;15.80;99.90;;;;;;5079073;28;20426;-63
2022/07/02 00:14:15;;;;;;;3.42;1.63;;;15.80;99.90;;;;;;5078465;28;20415;-64
2022/07/02 00:16:45;;;;;;;6.70;1.60;;;15.90;99.90;;;;;;5078626;28;20388;-63
2022/07/02 00:19:13;;;;;;;3.20;1.45;;;15.90;99.90;;;;;;5061349;28;20040;-63
2022/07/02 00:21:39;;;;;;;2.42;1.20;;;15.90;99.90;;;;;;5078516;28;20032;-63
2022/07/02 00:24:09;;;;;;;3.38;1.30;;;16.00;99.90;;;;;;5078471;28;20304;-64
2022/07/02 00:26:39;;;;;;;4.60;1.63;;;16.10;99.90;;;;;;5078298;28;20083;-64
2022/07/02 00:29:31;;;;;;;3.00;1.20;;;16.20;99.90;;;;;;5078675;28;20396;-62
2022/07/02 00:31:58;;;;;;;3.20;1.42;;;16.30;99.90;;;;;;5078365;28;20035;-62
2022/07/02 00:34:25;;;;;;;3.78;1.30;;;16.40;99.90;;;;;;5078131;28;20033;-63
2022/07/02 00:36:52;;;;;;;3.00;1.10;;;16.40;99.90;;;;;;5078622;28;20451;-63
2022/07/02 00:39:18;;;;;;;3.75;1.13;;;16.40;99.90;;;;;;5078094;28;20384;-63
2022/07/02 00:41:48;;;;;;;1.98;1.00;;;16.30;99.90;;;;;;5044128;28;20028;-64
2022/07/02 00:44:14;;;;;;;7.25;1.20;;;16.30;99.90;;;;;;5060994;28;20052;-64
2022/07/02 00:46:42;;;;;;;2.25;1.25;;;16.40;99.90;;;;;;5078041;28;20051;-63
2022/07/02 00:49:08;;;;;;;2.83;1.75;;;16.40;99.90;;;;;;5078316;28;20029;-64
2022/07/02 00:51:34;;;;;;;1.88;1.00;;;16.40;99.90;;;;;;5060625;28;20025;-63
2022/07/02 00:54:01;;;;;;;3.72;1.27;;;16.40;99.90;;;;;;5060557;28;20047;-63
2022/07/02 00:56:27;;;;;;;3.65;1.23;;;16.30;99.90;;;;;;5077711;28;20055;-62
2022/07/02 00:58:53;;;;;;;2.92;1.25;;;16.30;99.90;;;;;;5077910;28;20053;-63
2022/07/02 01:01:19;;;;;;;3.90;1.20;;;16.30;99.90;;;;;;5077692;28;20021;-62
2022/07/02 01:03:47;;;;;;;3.80;1.20;;;16.30;99.90;;;;;;5077729;28;20054;-62
2022/07/02 01:06:15;;;;;;;5.13;1.20;;;16.30;99.90;;;;;;5060599;28;20047;-63
2022/07/02 01:11:27;;;;;;;2.38;1.00;;;16.50;99.90;;;;;;5077839;28;20118;-63
2022/07/02 01:13:55;;;;;;;3.95;1.25;;;16.60;99.90;;;;;;5077504;28;20024;-64
2022/07/02 01:16:21;;;;;;;2.72;1.15;;;16.50;99.90;;;;;;5077389;28;20094;-64
2022/07/02 01:18:47;;;;;;;4.53;1.08;;;16.40;99.90;;;;;;5077455;28;20327;-64
2022/07/02 01:21:12;;;;;;;3.50;1.00;;;16.30;99.90;;;;;;5077291;28;20047;-63
2022/07/02 01:23:38;;;;;;;2.95;0.90;;;16.20;99.90;;;;;;5043374;28;20403;-63
2022/07/02 01:26:04;;;;;;;2.33;0.95;;;16.30;99.90;;;;;;5077452;28;20109;-63
2022/07/02 01:28:30;;;;;;;3.40;0.90;;;16.40;99.90;;;;;;5077258;28;20029;-62
2022/07/02 01:30:56;;;;;;;2.90;0.90;;;16.40;99.90;;;;;;5077724;28;20138;-62
2022/07/02 01:33:22;;;;;;;4.70;1.00;;;16.50;99.90;;;;;;5077061;28;20025;-64
2022/07/02 01:35:48;;;;;;;2.13;0.88;;;16.50;99.90;;;;;;5043596;28;20084;-63
2022/07/02 01:38:13;;;;;;;3.42;0.90;;;16.50;99.90;;;;;;5077035;28;20067;-62
2022/07/02 01:40:39;;;;;;;2.17;1.00;;;16.50;99.90;;;;;;5076966;28;20029;-63
2022/07/02 01:43:05;;;;;;;2.10;1.10;;;16.60;99.90;;;;;;5076442;28;20045;-62
2022/07/02 01:45:31;;;;;;;2.58;1.00;;;16.60;99.90;;;;;;5076956;28;20115;-62
2022/07/02 01:47:56;;;;;;;2.00;1.05;;;16.70;99.90;;;;;;5077033;28;20055;-63
2022/07/02 01:50:22;;;;;;;2.92;1.42;;;16.90;99.90;;;;;;5077080;28;20350;-64
2022/07/02 01:52:48;;;;;;;1.83;0.82;;;16.90;99.90;;;;;;5059575;28;20113;-63
2022/07/02 01:55:14;;;;;;;2.83;1.00;;;16.90;99.90;;;;;;5076786;28;20028;-63
2022/07/02 01:57:39;;;;;;;2.78;0.90;;;16.80;99.90;;;;;;5076794;28;20067;-64
2022/07/02 02:00:08;;;;;;;2.20;0.85;;;16.70;99.90;;;;;;5076861;28;20406;-62
2022/07/02 02:02:33;;;;;;;1.67;0.80;;;16.70;99.90;;;;;;5076955;28;20031;-63
2022/07/02 02:04:59;;;;;;;3.22;1.10;;;16.80;99.90;;;;;;5076877;28;20040;-64
2022/07/02 02:07:26;;;;;;;1.65;1.05;;;16.80;99.90;;;;;;5059357;28;20476;-64
2022/07/02 02:09:53;;;;;;;3.47;0.90;;;16.90;99.90;;;;;;5076785;28;20040;-62
2022/07/02 02:12:19;;;;;;;3.78;0.93;;;16.90;99.90;;;;;;5077109;28;20090;-63
2022/07/02 02:14:45;;;;;;;4.70;1.00;;;16.80;99.90;;;;;;5076668;28;20392;-63
2022/07/02 02:17:11;;;;;;;3.63;1.00;;;16.70;99.90;;;;;;5076947;28;20158;-62
2022/07/02 02:19:36;;;;;;;1.58;0.95;;;16.80;99.90;;;;;;5076735;28;20040;-63
2022/07/02 02:22:02;;;;;;;2.30;0.98;;;16.80;99.90;;;;;;5076646;28;20033;-63
2022/07/02 02:24:28;;;;;;;2.53;1.20;;;16.80;99.90;;;;;;5076696;28;20040;-62
2022/07/02 02:26:54;;;;;;;2.78;0.90;;;16.90;99.90;;;;;;5076458;28;20111;-63
2022/07/02 02:29:20;;;;;;;2.63;0.85;;;17.00;99.90;;;;;;5076535;28;20299;-63
2022/07/02 02:31:46;;;;;;;1.95;0.70;;;17.10;99.90;;;;;;5076549;28;20117;-64
2022/07/02 02:34:11;;;;;;;3.58;0.95;;;17.10;99.90;;;;;;5076464;28;20123;-64
2022/07/02 02:36:37;;;;;;;3.72;0.80;;;17.00;99.90;;;;;;5076432;28;20021;-63
2022/07/02 02:39:03;;;;;;;3.50;1.10;;;17.00;99.90;;;;;;5076504;28;20093;-61
2022/07/02 02:41:29;;;;;;;4.00;0.88;;;16.80;99.90;;;;;;5042262;28;20115;-63
2022/07/02 02:43:54;;;;;;;1.77;0.70;;;16.80;99.90;;;;;;5076511;28;20435;-63
2022/07/02 02:46:20;;;;;;;5.68;1.00;;;16.90;99.90;;;;;;5076440;28;20094;-63
2022/07/02 02:48:46;;;;;;;2.97;0.80;;;17.00;99.90;;;;;;5059052;28;20079;-63
2022/07/02 02:51:15;;;;;;;2.05;0.80;;;16.90;99.90;;;;;;5076383;28;20436;-63
2022/07/02 02:53:44;;;;;;;1.20;0.70;;;16.80;99.90;;;;;;5078535;28;20198;-63
2022/07/02 02:56:11;;;;;;;2.17;0.88;;;16.90;99.90;;;;;;5080169;28;20029;-63
2022/07/02 02:58:37;;;;;;;4.63;1.17;;;17.00;99.90;;;;;;5080550;28;20029;-61
2022/07/02 03:01:03;;;;;;;2.25;0.90;;;17.00;99.90;;;;;;5080071;28;20067;-63
2022/07/02 03:03:29;;;;;;;4.03;0.95;;;17.10;99.90;;;;;;5080320;28;20104;-63
2022/07/02 03:05:55;;;;;;;2.10;0.80;;;17.10;99.90;;;;;;5079934;28;20064;-63
2022/07/02 03:08:21;;;;;;;3.15;0.93;;;17.00;99.90;;;;;;5079846;28;20044;-62
2022/07/02 03:10:50;;;;;;;2.22;0.90;;;16.90;99.90;;;;;;5080227;28;20093;-62
2022/07/02 03:13:16;;;;;;;2.72;0.82;;;16.90;99.90;;;;;;5079864;28;20032;-62
2022/07/02 03:15:42;;;;;;;1.98;0.98;;;16.80;99.90;;;;;;5079653;28;20122;-61
2022/07/02 03:18:08;;;;;;;2.63;0.88;;;16.80;99.90;;;;;;5080036;28;20273;-62
2022/07/02 03:20:34;;;;;;;2.05;0.90;;;16.70;99.90;;;;;;5079821;28;20025;-62
2022/07/02 03:23:00;;;;;;;2.75;1.00;;;16.80;99.90;;;;;;5079589;28;20035;-62
2022/07/02 03:25:26;;;;;;;2.78;1.00;;;16.70;99.90;;;;;;5079575;28;20407;-62
2022/07/02 03:27:53;;;;;;;3.97;1.17;;;16.60;99.90;;;;;;5079315;28;20048;-63
2022/07/02 03:30:19;;;;;;;3.33;0.90;;;16.50;99.90;;;;;;5079621;28;20074;-62
2022/07/02 03:32:46;;;;;;;1.95;0.98;;;16.60;99.90;;;;;;5079634;28;20056;-63
2022/07/02 03:35:12;;;;;;;4.13;0.90;;;16.60;99.90;;;;;;5079373;28;20082;-63
2022/07/02 03:37:37;;;;;;;3.03;1.00;;;16.60;99.90;;;;;;5079332;28;20025;-62
2022/07/02 03:40:03;;;;;;;3.65;1.17;;;16.70;99.90;;;;;;5079403;28;20021;-63
2022/07/02 03:42:29;;;;;;;2.50;0.90;;;16.80;99.90;;;;;;5079501;28;20324;-63
2022/07/02 03:44:55;;;;;;;3.70;1.02;;;16.80;99.90;;;;;;5079279;28;20025;-63
2022/07/02 03:47:21;;;;;;;5.50;1.00;;;16.80;99.90;;;;;;5079101;28;20048;-62
2022/07/02 03:49:47;;;;;;;4.20;1.08;;;16.70;99.90;;;;;;5079001;28;20447;-63
2022/07/02 03:52:12;;;;;;;3.50;1.20;;;16.70;99.90;;;;;;5045028;28;20158;-63
2022/07/02 03:54:38;;;;;;;2.10;0.98;;;16.80;99.90;;;;;;5078805;28;20048;-63
2022/07/02 03:57:05;;;;;;;1.80;1.00;;;16.90;99.90;;;;;;5061701;28;20020;-63
2022/07/02 03:59:31;;;;;;;3.92;1.10;;;16.90;99.90;;;;;;5079010;28;20116;-63
2022/07/02 04:01:56;;;;;;;3.50;1.00;;;16.90;99.90;;;;;;5061395;28;20108;-63
2022/07/02 04:04:22;;;;;;;2.47;1.00;;;16.80;99.90;;;;;;5060832;28;20071;-63
2022/07/02 04:06:48;;;;;;;4.68;1.30;;;16.60;99.90;;;;;;5078865;28;20405;-63
2022/07/02 04:09:14;;;;;;;2.90;1.25;;;16.70;99.90;;;;;;5078706;28;20067;-63
2022/07/02 04:11:40;;;;;;;4.55;1.10;;;16.80;99.90;;;;;;5078525;28;20039;-63
2022/07/02 04:14:06;;;;;;;1.98;0.90;;;16.70;99.90;;;;;;5078566;28;20040;-63
2022/07/02 04:16:31;;;;;;;2.88;1.17;;;16.80;99.90;;;;;;5078601;28;20028;-61
2022/07/02 04:18:57;;;;;;;3.50;1.05;;;16.70;99.90;;;;;;5078618;28;20116;-63
2022/07/02 04:21:23;;;;;;;3.35;1.38;;;16.80;99.90;;;;;;5078572;28;20100;-63
2022/07/02 04:23:49;;;;;;;3.08;1.05;;;16.70;99.90;;;;;;5078621;28;20024;-64
2022/07/02 04:26:15;;;;;;;4.45;1.35;;;16.80;99.90;;;;;;5078425;28;20135;-63
2022/07/02 04:28:40;;;;;;;2.33;0.90;;;16.80;99.90;;;;;;5061145;28;20447;-64
2022/07/02 04:31:06;;;;;;;2.58;1.20;;;16.80;99.90;;;;;;5078937;28;20039;-63
2022/07/02 04:33:32;;;;;;;2.97;1.02;;;16.80;99.90;;;;;;5078489;28;20068;-63
2022/07/02 04:35:58;;;;;;;2.20;1.00;;;16.90;99.90;;;;;;5078335;28;20048;-63
2022/07/02 04:38:24;;;;;;;2.35;0.98;;;16.90;99.90;;;;;;5078298;28;20438;-63
2022/07/02 04:40:49;;;;;;;3.80;1.10;;;16.70;99.90;;;;;;5078550;28;20036;-63
2022/07/02 04:43:15;;;;;;;3.42;0.90;;;16.70;99.90;;;;;;5078179;28;20036;-65
2022/07/02 04:45:41;;;;;;;2.53;1.15;;;16.70;99.90;;;;;;5078566;28;20072;-63
2022/07/02 04:48:07;;;;;;;3.95;1.15;;;16.80;99.90;;;;;;5078238;28;20297;-63
2022/07/02 04:50:34;;;;;;;6.05;1.42;;;16.80;99.90;;;;;;5077967;28;20036;-63
2022/07/02 04:52:59;;;;;;;2.10;1.05;;;16.60;99.90;;;;;;5077931;28;20037;-63
2022/07/02 04:55:25;;;;;;;5.13;1.05;;;16.70;99.90;;;;;;5077949;28;20350;-64
2022/07/02 04:57:51;;;;;;;5.38;1.45;;;16.70;99.90;;;;;;5077833;28;20036;-63
2022/07/02 05:00:17;;;;;;;3.10;1.15;;;16.70;99.90;;;;;;5060463;28;20016;-65
2022/07/02 05:02:43;;;;;;;5.10;1.13;;;16.60;99.90;;;;;;5077821;28;20032;-64
2022/07/02 05:05:09;;;;;;;2.90;1.20;;;16.60;99.90;;;;;;5077786;28;20090;-64
2022/07/02 05:07:35;;;;;;;3.10;1.33;;;16.40;99.90;;;;;;5077667;28;20037;-64
2022/07/02 05:10:01;;;;;;;4.95;1.40;;;16.30;99.90;;;;;;5077618;28;20127;-64
2022/07/02 05:12:27;;;;;;;4.50;1.48;;;16.20;99.90;;;;;;5077628;28;20056;-66
2022/07/02 05:14:53;;;;;;;3.70;1.35;;;16.20;99.90;;;;;;5077510;28;20091;-64
2022/07/02 05:17:19;;;;;;;3.55;1.10;;;16.40;99.90;;;;;;5077800;28;20308;-63
2022/07/02 05:19:45;;;;;;;2.80;1.08;;;16.30;99.90;;;;;;5077812;28;20032;-64
2022/07/02 05:22:11;;;;;;;3.88;1.40;;;16.20;99.90;;;;;;5077719;28;20400;-62
2022/07/02 05:24:37;;;;;;;2.75;1.10;;;16.10;99.90;;;;;;5077434;28;20424;-63
2022/07/02 05:27:03;;;;;;;4.32;1.38;;;16.10;99.90;;;;;;5077225;28;20059;-62
2022/07/02 05:29:29;;;;;;;8.68;1.30;;;16.10;99.90;;;;;;5077383;28;20090;-61
2022/07/02 05:31:54;;;;;;;3.13;1.13;;;16.10;99.90;;;;;;5059809;28;20028;-61
2022/07/02 05:34:20;;;;;;;4.53;1.25;;;16.10;99.90;;;;;;5077146;28;20035;-62
2022/07/02 05:36:47;;;;;;;3.70;1.20;;;16.10;99.90;;;;;;5077184;28;20104;-62
2022/07/02 05:39:13;;;;;;;3.25;1.20;;;16.10;99.90;;;;;;5077196;28;20063;-64
2022/07/02 05:41:39;;;;;;;3.30;1.20;;;16.10;99.90;;;;;;5077161;28;20331;-64
2022/07/02 05:44:05;;;;;;;2.35;1.10;;;16.10;99.90;;;;;;5060418;28;20032;-64
2022/07/02 05:46:31;;;;;;;3.50;1.17;;;16.20;99.90;;;;;;5077088;28;20024;-66
2022/07/02 05:48:57;;;;;;;3.65;1.08;;;16.30;99.90;;;;;;5059796;28;20031;-64
2022/07/02 05:51:23;;;;;;;2.40;1.13;;;16.40;99.90;;;;;;5077087;28;20028;-64
2022/07/02 05:53:49;;;;;;;2.13;1.10;;;16.40;99.90;;;;;;5059857;28;20297;-64
2022/07/02 05:56:15;;;;;;;3.83;1.00;;;16.60;99.90;;;;;;5076879;28;20032;-62
2022/07/02 05:58:41;;;;;;;4.85;1.00;;;16.50;99.90;;;;;;5059557;28;20404;-65
2022/07/02 06:01:07;;;;;;;2.58;0.80;;;16.50;99.90;;;;;;5059320;28;20278;-64
2022/07/02 06:03:33;;;;;;;1.95;0.77;;;16.50;99.90;;;;;;5042682;28;20025;-65
2022/07/02 06:08:43;;;;;;;1.17;0.70;;;16.80;99.90;;;;;;5076953;28;20040;-65
2022/07/02 06:11:10;;;;;;;2.30;0.70;;;16.90;99.90;;;;;;5059565;28;20132;-63
2022/07/02 06:13:36;;;;;;;2.08;0.60;;;17.00;99.90;;;;;;5076778;28;20070;-66
2022/07/02 06:16:02;;;;;;;1.30;0.47;;;17.10;99.90;;;;;;5076950;28;20040;-66
2022/07/02 06:18:28;;;;;;;1.90;0.70;;;17.30;99.90;;;;;;5059791;28;20033;-62
2022/07/02 06:20:54;;;;;;;1.95;0.80;;;17.30;99.90;;;;;;5076811;28;20374;-64
2022/07/02 06:23:21;;;;;;;2.08;0.70;;;17.40;99.90;;;;;;5076726;28;20040;-65
2022/07/02 06:25:50;;;;;;;2.17;0.60;;;17.40;99.90;;;;;;5059166;28;20029;-64
2022/07/02 06:28:17;;;;;;;3.03;0.60;;;17.30;99.90;;;;;;5078409;28;20090;-65
2022/07/02 06:30:42;;;;;;;2.70;0.50;;;17.30;99.90;;;;;;5064072;28;20315;-65
2022/07/02 06:33:08;;;;;;;2.47;0.47;;;17.30;99.90;;;;;;5080766;28;20032;-64
2022/07/02 06:35:34;;;;;;;1.05;0.50;;;17.50;99.90;;;;;;5063376;28;20091;-63
2022/07/02 06:38:00;;;;;;;1.77;0.50;;;17.60;99.90;;;;;;5080625;28;20337;-63
2022/07/02 06:40:26;;;;;;;1.15;0.40;;;17.70;99.90;;;;;;5063278;28;20028;-62
2022/07/02 06:42:51;;;;;;;2.50;0.60;;;17.80;99.90;;;;;;5080498;28;20098;-64
2022/07/02 06:45:17;;;;;;;0.93;0.40;;;18.00;99.90;;;;;;5080588;28;20032;-63
2022/07/02 06:47:43;;;;;;;1.75;0.55;;;18.10;99.90;;;;;;5080412;28;20036;-63
2022/07/02 06:50:11;;;;;;;1.13;0.30;;;18.10;99.90;;;;;;5063122;28;20107;-61
2022/07/02 06:52:37;;;;;;;2.55;0.60;;;18.20;99.90;;;;;;5080336;28;20032;-63
2022/07/02 06:55:03;;;;;;;1.35;0.55;;;18.30;99.90;;;;;;5080249;28;20037;-63
2022/07/02 06:57:29;;;;;;;2.40;0.40;;;18.30;99.90;;;;;;5063132;28;20029;-63
2022/07/02 06:59:55;;;;;;;0.95;0.35;;;18.50;99.90;;;;;;5080202;28;20042;-62
2022/07/02 07:02:22;;;;;;;0.73;0.30;;;18.40;99.90;;;;;;5080422;28;20025;-62
2022/07/02 07:04:49;;;;;;;2.42;0.47;;;18.20;99.90;;;;;;5080096;28;20020;-62
2022/07/02 07:07:16;;;;;;;1.98;0.43;;;18.30;99.90;;;;;;5080009;28;20047;-64
2022/07/02 07:09:42;;;;;;;1.73;0.30;;;18.50;99.90;;;;;;5080049;28;20119;-65
2022/07/02 07:12:08;;;;;;;0.90;0.30;;;18.50;99.90;;;;;;5062696;28;20070;-63
2022/07/02 07:14:36;;;;;;;2.92;0.40;;;18.50;99.90;;;;;;5080450;28;20044;-68
2022/07/02 07:17:02;;;;;;;1.73;0.40;;;18.50;99.90;;;;;;5080240;28;20029;-62
2022/07/02 07:19:29;;;;;;;1.60;0.28;;;18.50;99.90;;;;;;5080307;28;20043;-63
2022/07/02 07:21:54;;;;;;;2.40;0.38;;;18.50;99.90;;;;;;5080190;28;20086;-62
2022/07/02 07:24:20;;;;;;;0.82;0.20;;;18.60;99.90;;;;;;5079798;28;20032;-60
2022/07/02 07:26:46;;;;;;;1.33;0.43;;;18.70;99.90;;;;;;5079450;28;20044;-61
2022/07/02 07:29:12;;;;;;;1.17;0.15;;;18.90;99.90;;;;;;5079668;28;20025;-64
2022/07/02 07:31:38;;;;;;;2.40;0.40;;;19.00;99.90;;;;;;5080109;28;20029;-63
2022/07/02 07:34:04;;;;;;;3.45;0.60;;;19.10;99.90;;;;;;5079669;28;20090;-63
2022/07/02 07:36:31;;;;;;;2.33;0.40;;;18.90;99.90;;;;;;5079539;28;20079;-63
2022/07/02 07:39:00;;;;;;;2.47;0.43;;;19.00;99.90;;;;;;5078787;28;20107;-63
2022/07/02 07:41:25;;;;;;;1.30;0.50;;;19.10;99.90;;;;;;5061760;28;20024;-63
2022/07/02 07:43:54;;;;;;;2.50;0.50;;;19.20;99.90;;;;;;5079435;28;20126;-62
2022/07/02 07:46:21;;;;;;;4.10;0.65;;;19.20;99.90;;;;;;5079941;28;20119;-63
2022/07/02 07:48:47;;;;;;;1.50;0.90;;;19.40;99.90;;;;;;5079371;28;20032;-63
2022/07/02 07:51:14;;;;;;;3.78;0.95;;;19.60;99.90;;;;;;5079368;28;20029;-64
2022/07/02 07:53:40;;;;;;;1.30;0.50;;;19.80;99.90;;;;;;5079609;28;20444;-63
2022/07/02 07:56:05;;;;;;;1.38;0.65;;;19.90;99.90;;;;;;5061692;28;20119;-64
2022/07/02 07:58:34;;;;;;;2.75;0.70;;;19.90;99.90;;;;;;5079249;28;20114;-64
2022/07/02 08:01:00;;;;;;;3.83;0.70;;;19.80;99.90;;;;;;5029495;28;20098;-65
2022/07/02 08:03:25;;;;;;;2.78;0.70;;;19.60;99.90;;;;;;5079005;28;20025;-64
2022/07/02 08:05:53;;;;;;;1.70;0.50;;;19.50;99.90;;;;;;5028531;28;20047;-62
2022/07/02 08:08:20;;;;;;;4.78;0.75;;;19.60;99.90;;;;;;5078930;28;20051;-62
2022/07/02 08:10:46;;;;;;;3.55;0.80;;;19.80;99.90;;;;;;5061512;28;20033;-65
2022/07/02 08:13:12;;;;;;;2.35;0.80;;;19.60;99.90;;;;;;5078874;28;20025;-62
2022/07/02 08:15:38;;;;;;;3.65;0.80;;;19.70;99.90;;;;;;5078741;28;20028;-64
2022/07/02 08:18:04;;;;;;;3.30;0.68;;;19.90;99.90;;;;;;5078667;28;20392;-63
2022/07/02 08:20:30;;;;;;;2.17;0.60;;;20.10;99.90;;;;;;5061369;28;20277;-64
2022/07/02 08:22:56;;;;;;;3.05;0.68;;;20.20;99.90;;;;;;5078913;28;20336;-64
2022/07/02 08:25:22;;;;;;;1.45;0.50;;;20.30;99.90;;;;;;5079151;28;20040;-63
2022/07/02 08:27:47;;;;;;;1.80;0.77;;;20.50;99.90;;;;;;5044653;28;20060;-63
2022/07/02 08:30:13;;;;;;;2.58;0.70;;;20.40;99.90;;;;;;5078602;28;20024;-64
2022/07/02 08:32:39;;;;;;;2.20;0.47;;;20.40;99.90;;;;;;5078531;28;20028;-64
2022/07/02 08:35:06;;;;;;;2.22;0.60;;;20.50;99.90;;;;;;5028057;28;20036;-64
2022/07/02 08:37:32;;;;;;;4.22;0.70;;;20.70;99.90;;;;;;5044441;28;20090;-64
2022/07/02 08:39:58;;;;;;;2.53;0.60;;;20.50;99.90;;;;;;5078455;28;20052;-64
2022/07/02 08:42:29;;;;;;;1.38;0.63;;;20.30;99.90;;;;;;5060924;28;20028;-63
2022/07/02 08:45:02;;;;;;;3.17;0.63;;;20.30;99.90;;;;;;5078743;28;20028;-62
2022/07/02 08:47:28;;;;;;;1.77;0.47;;;20.40;99.90;;;;;;5061390;28;20028;-65
2022/07/02 08:49:56;;;;;;;3.92;0.60;;;20.20;99.90;;;;;;5078119;28;20036;-64
2022/07/02 08:52:24;;;;;;;2.03;0.40;;;20.20;99.90;;;;;;5077716;28;20025;-64
2022/07/02 08:54:51;;;;;;;4.40;0.60;;;20.20;99.90;;;;;;5060625;28;20033;-62
2022/07/02 08:57:18;;;;;;;1.90;0.70;;;20.30;99.90;;;;;;5078224;28;20289;-64
2022/07/02 08:59:44;;;;;;;1.80;0.38;;;20.40;99.90;;;;;;5078490;28;20020;-63
2022/07/02 09:02:13;;;;;;;2.30;0.52;;;20.40;99.90;;;;;;5060642;28;20047;-68
2022/07/02 09:04:47;;;;;;;2.08;0.57;;;20.40;99.90;;;;;;5077899;28;20127;-64
2022/07/02 09:07:14;;;;;;;8.45;0.77;;;20.50;99.90;;;;;;5078298;28;20046;-65
2022/07/02 09:09:42;;;;;;;1.80;0.50;;;20.60;99.90;;;;;;5078128;28;20043;-64
2022/07/02 09:12:13;;;;;;;1.73;0.50;;;20.60;99.90;;;;;;5077708;28;20221;-64
2022/07/02 09:14:39;;;;;;;1.70;0.45;;;20.40;99.90;;;;;;5078274;28;20043;-66
2022/07/02 09:17:10;;;;;;;4.28;0.60;;;20.40;99.90;;;;;;5077993;28;20052;-65
2022/07/02 09:19:36;;;;;;;2.25;0.60;;;20.60;99.90;;;;;;5043901;28;20098;-65
2022/07/02 09:22:03;;;;;;;2.15;0.60;;;20.90;99.90;;;;;;5060291;28;20068;-64
2022/07/02 09:24:29;;;;;;;1.98;0.60;;;21.10;99.90;;;;;;5060547;28;20037;-64
2022/07/02 09:27:06;;;;;;;2.55;0.80;;;21.30;99.90;;;;;;5043139;28;20049;-63
2022/07/02 09:29:45;;;;;;;1.95;0.88;;;21.20;99.90;;;;;;5077756;28;20032;-64
2022/07/02 09:32:12;;;;;;;3.00;0.90;;;21.00;99.90;;;;;;5060453;28;20060;-64
2022/07/02 09:34:50;;;;;;;3.85;0.80;;;21.00;99.90;;;;;;5059953;28;20031;-65
2022/07/02 09:37:18;;;;;;;1.42;0.60;;;21.00;99.90;;;;;;5077516;28;20035;-65
2022/07/02 09:39:45;;;;;;;2.92;0.60;;;21.00;99.90;;;;;;5077362;28;20323;-65
2022/07/02 09:42:28;;;;;;;2.95;0.65;;;21.20;99.90;;;;;;5077594;28;20325;-65
2022/07/02 09:44:55;;;;;;;2.58;0.52;;;21.20;99.90;;;;;;5077363;28;20035;-65
2022/07/02 09:47:34;;;;;;;2.15;0.88;;;21.30;99.90;;;;;;5077212;28;20028;-64
2022/07/02 09:50:12;;;;;;;3.60;0.75;;;21.60;99.90;;;;;;5077255;28;20090;-66
2022/07/02 09:52:55;;;;;;;3.50;0.70;;;21.60;99.90;;;;;;5077122;28;20036;-65
2022/07/02 09:55:32;;;;;;;3.70;0.80;;;21.40;99.90;;;;;;5077207;28;20087;-66
2022/07/02 09:58:00;;;;;;;2.97;0.98;;;21.60;99.90;;;;;;5059938;28;20021;-65
2022/07/02 10:00:32;;;;;;;2.20;0.90;;;21.50;99.90;;;;;;5077521;28;20325;-65
2022/07/02 10:02:59;;;;;;;2.00;0.75;;;21.50;99.90;;;;;;5076367;28;20161;-66
2022/07/02 10:05:33;;;;;;;1.42;0.80;;;21.70;99.90;;;;;;5077003;28;20107;-66
2022/07/02 10:08:04;;;;;;;2.45;0.88;;;21.90;99.90;;;;;;5059689;28;20107;-66
2022/07/02 10:10:38;;;;;;;4.53;0.80;;;22.30;99.90;;;;;;5059803;28;20303;-66
2022/07/02 10:13:09;;;;;;;1.27;0.68;;;22.40;99.90;;;;;;5076873;28;20040;-63
2022/07/02 10:15:39;;;;;;;1.65;0.80;;;22.50;99.90;;;;;;5077238;28;20121;-65
2022/07/02 10:18:06;;;;;;;2.30;0.85;;;22.80;99.90;;;;;;5076917;28;20028;-64
2022/07/02 10:20:33;;;;;;;1.77;0.77;;;23.30;99.90;;;;;;5076842;28;20048;-63
2022/07/02 10:23:02;;;;;;;2.92;0.82;;;23.30;99.90;;;;;;5076737;28;20040;-64
2022/07/02 10:25:29;;;;;;;2.72;0.75;;;22.90;99.90;;;;;;5059708;28;20024;-64
2022/07/02 10:27:56;;;;;;;3.28;0.70;;;22.70;99.90;;;;;;5059058;28;20055;-67
2022/07/02 10:30:32;;;;;;;2.42;0.80;;;22.40;99.90;;;;;;5076769;28;20068;-64
2022/07/02 10:33:31;;;;;;;3.22;0.68;;;22.60;99.90;;;;;;5076677;28;20029;-64
2022/07/02 10:35:59;;;;;;;1.73;0.70;;;23.00;99.90;;;;;;5076567;28;20028;-65
2022/07/02 10:38:34;;;;;;;2.92;0.82;;;23.10;99.90;;;;;;5076607;28;20029;-65
2022/07/02 10:41:00;;;;;;;1.10;0.50;;;22.90;99.90;;;;;;5059154;28;20029;-65
2022/07/02 10:43:30;;;;;;;2.95;0.60;;;22.90;99.90;;;;;;5059139;28;20032;-64
2022/07/02 10:46:10;;;;;;;3.97;0.52;;;22.90;99.90;;;;;;5076573;28;20040;-64
2022/07/02 10:48:47;;;;;;;1.15;0.40;;;23.50;99.90;;;;;;5042645;28;20029;-67
2022/07/02 10:51:24;;;;;;;2.88;0.55;;;23.20;99.90;;;;;;5077068;28;20040;-59
2022/07/02 10:53:52;;;;;;;3.90;0.50;;;23.30;99.90;;;;;;5042357;28;20032;-64
2022/07/02 10:56:18;;;;;;;1.67;0.65;;;23.40;99.90;;;;;;5059055;28;20029;-65
2022/07/02 10:58:44;;;;;;;1.35;0.60;;;23.20;99.90;;;;;;5076359;28;20036;-66
2022/07/02 11:01:12;;;;;;;2.25;0.50;;;23.10;99.90;;;;;;5076699;28;20343;-63
2022/07/02 11:03:38;;;;;;;2.17;0.50;;;23.10;99.90;;;;;;5076388;28;20040;-64
2022/07/02 11:06:20;;;;;;;1.30;0.40;;;22.90;99.90;;;;;;5076329;28;20029;-62
2022/07/02 11:08:59;;;;;;;3.20;0.38;;;23.10;99.90;;;;;;5076366;28;20036;-63
2022/07/02 11:11:38;;;;;;;0.43;0.30;;;23.30;99.90;;;;;;5076874;28;20123;-65
2022/07/02 11:14:18;;;;;;;1.58;0.50;;;23.40;99.90;;;;;;5077510;28;20063;-66
2022/07/02 11:16:49;;;;;;;2.30;0.50;;;23.80;99.90;;;;;;5062576;28;20127;-64
2022/07/02 11:19:31;;;;;;;1.98;0.50;;;24.30;99.90;;;;;;5062595;28;20025;-62
2022/07/02 11:21:59;;;;;;;1.17;0.37;;;24.70;99.90;;;;;;5080358;28;20028;-63
2022/07/02 11:24:30;;;;;;;1.00;0.30;;;25.30;99.90;;;;;;5079847;28;20450;-64
2022/07/02 11:26:57;;;;;;;1.73;0.43;;;26.20;99.90;;;;;;5079748;28;20079;-65
2022/07/02 11:29:23;;;;;;;1.00;0.30;;;26.30;99.90;;;;;;5062548;28;20028;-67
2022/07/02 11:31:51;;;;;;;2.00;0.30;;;25.80;99.90;;;;;;5062258;28;20102;-66
2022/07/02 11:34:22;;;;;;;2.05;0.35;;;25.60;99.90;;;;;;5079677;28;20453;-65
2022/07/02 11:36:49;;;;;;;1.88;0.38;;;25.00;99.90;;;;;;5079599;28;20119;-65
2022/07/02 11:39:17;;;;;;;1.33;0.40;;;25.20;99.90;;;;;;5079547;28;20107;-64
2022/07/02 11:41:44;;;;;;;1.30;0.40;;;25.10;99.90;;;;;;5079552;28;20415;-65
2022/07/02 11:44:19;;;;;;;1.88;0.40;;;24.90;99.90;;;;;;5046210;28;20052;-65
2022/07/02 11:46:48;;;;;;;2.60;0.50;;;25.30;99.90;;;;;;5079533;28;20109;-66
2022/07/02 11:49:19;;;;;;;1.08;0.40;;;25.70;99.90;;;;;;5079380;28;20028;-64
2022/07/02 11:51:46;;;;;;;1.83;0.45;;;24.50;99.90;;;;;;5079353;28;20020;-63
2022/07/02 11:54:13;;;;;;;1.25;0.50;;;24.30;99.90;;;;;;5061886;28;20055;-64
2022/07/02 11:56:40;;;;;;;2.10;0.50;;;24.60;99.90;;;;;;5079210;28;20116;-66
2022/07/02 11:59:10;;;;;;;1.55;0.50;;;25.00;99.90;;;;;;5079174;28;20033;-64
2022/07/02 12:01:37;;;;;;;2.58;0.50;;;25.70;99.90;;;;;;5061599;28;20124;-65
2022/07/02 12:04:08;;;;;;;1.38;0.50;;;25.60;99.90;;;;;;5045106;28;20406;-65
2022/07/02 12:06:36;;;;;;;3.22;0.50;;;25.70;99.90;;;;;;5061715;28;20028;-64
2022/07/02 12:09:09;;;;;;;2.03;0.50;;;25.60;99.90;;;;;;5078953;28;20056;-64
2022/07/02 12:11:35;;;;;;;;;;;25.30;99.90;;;;;;5062367;28;20400;-65
2022/07/02 12:14:02;;;;;;;1.63;0.80;;;25.20;99.90;;;;;;5078860;28;19909;-65
2022/07/02 12:16:29;;;;;;;1.00;0.50;;;25.10;99.90;;;;;;5061646;28;20040;-63
2022/07/02 12:19:07;;;;;;;2.60;0.60;;;25.40;99.90;;;;;;5061234;28;20135;-63
2022/07/02 12:21:36;;;;;;;2.30;0.40;;;25.50;99.90;;;;;;5061343;28;20041;-67
2022/07/02 12:24:18;;;;;;;2.17;0.68;;;25.50;99.90;;;;;;5078686;28;20063;-66
2022/07/02 12:26:45;;;;;;;3.28;0.40;;;26.00;99.90;;;;;;5057072;28;20132;-64
2022/07/02 12:32:05;;;;;;;3.03;0.50;;;27.40;99.90;;;;;;5058558;28;20106;-63
2022/07/02 12:34:42;;;;;;;1.92;0.40;;;28.70;99.90;;;;;;5057737;28;20309;-63
2022/07/02 12:37:35;;;;;;;1.20;0.50;;;29.00;99.90;;;;;;5058725;28;20405;-63
2022/07/02 12:40:04;;;;;;;1.88;0.47;;;29.30;96.90;;;;;;5057801;28;20174;-67
2022/07/02 12:42:34;;;;;;;0.80;0.32;;;28.20;97.20;;;;;;5057562;28;20166;-66
2022/07/02 12:45:06;;;;;;;1.00;0.20;;;29.10;96.10;;;;;;5058313;28;20082;-65
2022/07/02 12:47:34;;;;;;;1.55;0.50;;;28.70;95.80;;;;;;5058425;28;20329;-67
2022/07/02 12:50:14;;;;;;;2.88;0.30;;;28.80;95.30;;;;;;5058222;28;20044;-66
2022/07/02 12:52:49;;;;;;;1.33;0.40;;;28.20;96.30;;;;;;5058232;28;20039;-66
2022/07/02 12:55:51;;;;;;;1.00;0.30;;;27.60;97.10;;;;;;5058077;28;20044;-67
2022/07/02 12:58:19;;;;;;;2.37;0.40;;;29.30;94.50;;;;;;5054524;28;20037;-67
2022/07/02 13:00:45;;;;;;;1.73;0.30;;;31.70;91.20;;;;;;5040624;28;20388;-69